createdAt,value
2022-08-02T00:02:56.372Z,98734.66
2022-08-02T00:05:58.999Z,98741.63
2022-08-02T00:09:01.975Z,98734.00
2022-08-02T00:12:05.199Z,98738.72
2022-08-02T00:15:10.108Z,98740.31
2022-08-02T00:18:18.413Z,98735.91
2022-08-02T00:21:21.129Z,98734.69
2022-08-02T00:24:30.786Z,98742.59
2022-08-02T00:27:33.775Z,98741.44
2022-08-02T00:30:37.866Z,98743.41
2022-08-02T00:34:26.205Z,98740.22
2022-08-02T00:37:03.093Z,98738.19
2022-08-02T00:40:06.889Z,98742.19
2022-08-02T00:43:11.762Z,98735.63
2022-08-02T00:46:16.470Z,98738.84
2022-08-02T00:49:21.200Z,98731.81
2022-08-02T00:52:24.540Z,98745.25
2022-08-02T00:55:31.334Z,98737.91
2022-08-02T00:58:34.122Z,98739.19
2022-08-02T01:01:56.059Z,98730.69
2022-08-02T01:05:00.252Z,98726.31
2022-08-02T01:08:03.314Z,98730.06
2022-08-02T01:11:05.993Z,98724.44
2022-08-02T01:14:11.752Z,98720.78
2022-08-02T01:17:21.940Z,98725.03
2022-08-02T01:20:39.439Z,98731.75
2022-08-02T01:23:57.234Z,98744.28
2022-08-02T01:27:11.071Z,98740.25
2022-08-02T01:30:15.502Z,98746.56
2022-08-02T01:33:19.883Z,98744.66
2022-08-02T01:36:23.303Z,98745.56
2022-08-02T01:39:32.301Z,98749.00
2022-08-02T01:42:36.702Z,98747.75
2022-08-02T01:45:42.479Z,98748.44
2022-08-02T01:48:46.824Z,98752.75
2022-08-02T01:52:08.993Z,98755.19
2022-08-02T01:55:19.087Z,98752.81
2022-08-02T01:58:24.282Z,98752.91
2022-08-02T02:01:28.370Z,98764.06
2022-08-02T02:04:33.404Z,98757.94
2022-08-02T02:07:36.690Z,98761.09
2022-08-02T02:10:39.955Z,98765.41
2022-08-02T02:13:43.248Z,98758.97
2022-08-02T02:16:49.453Z,98756.09
2022-08-02T02:19:52.796Z,98763.03
2022-08-02T02:22:55.404Z,98770.47
2022-08-02T02:25:59.164Z,98761.34
2022-08-02T02:29:04.891Z,98763.44
2022-08-02T02:32:09.857Z,98761.75
2022-08-02T02:35:14.345Z,98750.91
2022-08-02T02:38:19.516Z,98748.94
2022-08-02T02:41:23.676Z,98754.34
2022-08-02T02:44:27.296Z,98751.81
2022-08-02T02:47:41.416Z,98748.09
2022-08-02T02:50:44.645Z,98752.41
2022-08-02T02:54:31.936Z,98748.47
2022-08-02T02:57:13.118Z,98748.03
2022-08-02T03:00:16.435Z,98741.56
2022-08-02T03:03:21.385Z,98731.91
2022-08-02T03:06:25.205Z,98731.03
2022-08-02T03:09:27.983Z,98727.00
2022-08-02T03:12:32.346Z,98730.88
2022-08-02T03:15:36.081Z,98729.34
2022-08-02T03:18:41.868Z,98733.56
2022-08-02T03:21:44.957Z,98739.75
2022-08-02T03:24:47.661Z,98740.25
2022-08-02T03:27:50.363Z,98743.81
2022-08-02T03:30:53.776Z,98749.28
2022-08-02T03:33:59.595Z,98748.47
2022-08-02T03:37:03.472Z,98749.53
2022-08-02T03:40:09.259Z,98747.78
2022-08-02T03:43:12.359Z,98751.69
2022-08-02T03:46:16.363Z,98759.28
2022-08-02T03:49:20.754Z,98760.16
2022-08-02T03:52:24.210Z,98758.09
2022-08-02T03:55:27.031Z,98760.94
2022-08-02T03:58:29.693Z,98764.00
2022-08-02T04:01:32.473Z,98768.28
2022-08-02T04:04:36.545Z,98771.78
2022-08-02T04:08:32.624Z,98763.53
2022-08-02T04:11:20.154Z,98776.72
2022-08-02T04:14:23.203Z,98785.84
2022-08-02T04:17:26.602Z,98788.84
2022-08-02T04:20:32.747Z,98789.25
2022-08-02T04:23:36.595Z,98789.75
2022-08-02T04:26:41.395Z,98798.25
2022-08-02T04:29:47.039Z,98797.16
2022-08-02T04:32:50.978Z,98805.16
2022-08-02T04:35:59.570Z,98811.63
2022-08-02T04:39:02.566Z,98811.66
2022-08-02T04:42:05.962Z,98816.97
2022-08-02T04:45:09.985Z,98813.91
2022-08-02T04:48:19.110Z,98817.59
2022-08-02T04:51:23.203Z,98813.84
2022-08-02T04:54:41.047Z,98807.78
2022-08-02T04:57:56.019Z,98798.47
2022-08-02T05:00:58.753Z,98805.06
2022-08-02T05:04:01.414Z,98801.81
2022-08-02T05:07:06.066Z,98794.97
2022-08-02T05:10:09.455Z,98809.38
2022-08-02T05:13:12.158Z,98810.41
2022-08-02T05:16:15.098Z,98814.66
2022-08-02T05:19:17.775Z,98818.00
2022-08-02T05:22:21.750Z,98811.34
2022-08-02T05:25:24.373Z,98809.53
2022-08-02T05:28:27.059Z,98810.91
2022-08-02T05:31:29.937Z,98811.00
2022-08-02T05:34:32.630Z,98812.66
2022-08-02T05:37:36.837Z,98799.16
2022-08-02T05:40:54.517Z,98806.31
2022-08-02T05:43:57.964Z,98797.91
2022-08-02T05:47:00.670Z,98804.69
2022-08-02T05:50:03.373Z,98812.63
2022-08-02T05:53:14.384Z,98803.97
2022-08-02T05:56:19.343Z,98812.03
2022-08-02T05:59:28.920Z,98813.69
2022-08-02T06:02:38.233Z,98816.91
2022-08-02T06:05:41.723Z,98812.84
2022-08-02T06:08:48.276Z,98809.00
2022-08-02T06:12:01.322Z,98812.59
2022-08-02T06:15:06.694Z,98811.84
2022-08-02T06:18:09.558Z,98813.94
2022-08-02T06:22:31.402Z,98814.75
2022-08-02T06:24:38.644Z,98815.19
2022-08-02T06:27:42.598Z,98812.44
2022-08-02T06:30:45.798Z,98816.41
2022-08-02T06:33:48.689Z,98811.63
2022-08-02T06:36:59.565Z,98811.22
2022-08-02T06:40:09.325Z,98814.84
2022-08-02T06:43:13.983Z,98806.88
2022-08-02T06:47:09.642Z,98803.31
2022-08-02T06:49:51.594Z,98800.97
2022-08-02T06:52:57.260Z,98806.91
2022-08-02T06:56:02.136Z,98809.75
2022-08-02T06:59:06.257Z,98807.75
2022-08-02T07:02:09.876Z,98807.34
2022-08-02T07:05:12.851Z,98810.94
2022-08-02T07:08:15.821Z,98813.34
2022-08-02T07:11:20.566Z,98817.28
2022-08-02T07:14:23.160Z,98812.53
2022-08-02T07:17:25.896Z,98815.28
2022-08-02T07:20:28.689Z,98818.88
2022-08-02T07:23:31.322Z,98816.41
2022-08-02T07:26:49.674Z,98825.34
2022-08-02T07:29:58.150Z,98820.84
2022-08-02T07:33:02.097Z,98821.75
2022-08-02T07:36:05.515Z,98817.06
2022-08-02T07:39:10.788Z,98819.13
2022-08-02T07:42:14.948Z,98827.41
2022-08-02T07:45:17.741Z,98817.22
2022-08-02T07:48:20.627Z,98822.81
2022-08-02T07:51:23.425Z,98827.31
2022-08-02T07:54:26.138Z,98835.91
2022-08-02T07:57:31.071Z,98830.44
2022-08-02T08:00:34.015Z,98834.69
2022-08-02T08:03:36.683Z,98828.53
2022-08-02T08:06:39.334Z,98831.25
2022-08-02T08:09:42.578Z,98829.69
2022-08-02T08:12:46.618Z,98835.97
2022-08-02T08:15:51.913Z,98828.44
2022-08-02T08:18:55.512Z,98825.94
2022-08-02T08:22:00.182Z,98820.31
2022-08-02T08:25:02.814Z,98819.94
2022-08-02T08:28:08.094Z,98825.31
2022-08-02T08:31:11.196Z,98821.69
2022-08-02T08:34:14.097Z,98820.69
2022-08-02T08:37:18.514Z,98831.38
2022-08-02T08:40:21.594Z,98825.94
2022-08-02T08:43:25.420Z,98821.50
2022-08-02T08:46:29.373Z,98820.72
2022-08-02T08:49:33.852Z,98813.00
2022-08-02T08:52:38.381Z,98809.19
2022-08-02T08:55:41.036Z,98802.66
2022-08-02T08:58:45.951Z,98808.63
2022-08-02T09:01:51.202Z,98816.97
2022-08-02T09:04:55.163Z,98816.66
2022-08-02T09:07:58.420Z,98809.59
2022-08-02T09:11:01.660Z,98805.13
2022-08-02T09:14:06.111Z,98802.09
2022-08-02T09:17:10.355Z,98814.78
2022-08-02T09:20:13.624Z,98807.94
2022-08-02T09:23:16.286Z,98797.31
2022-08-02T09:26:19.742Z,98793.91
2022-08-02T09:29:25.414Z,98798.16
2022-08-02T09:32:29.676Z,98806.00
2022-08-02T09:36:06.691Z,98793.50
2022-08-02T09:38:58.318Z,98789.16
2022-08-02T09:42:10.721Z,98800.94
2022-08-02T09:45:14.974Z,98790.88
2022-08-02T09:48:17.711Z,98794.38
2022-08-02T09:51:22.059Z,98790.75
2022-08-02T09:54:26.504Z,98782.13
2022-08-02T09:57:30.507Z,98786.88
2022-08-02T10:00:51.822Z,98790.25
2022-08-02T10:03:57.101Z,98791.03
2022-08-02T10:07:04.107Z,98785.91
2022-08-02T10:10:08.512Z,98787.19
2022-08-02T10:13:11.696Z,98784.56
2022-08-02T10:16:16.968Z,98785.16
2022-08-02T10:19:59.824Z,98788.94
2022-08-02T10:22:42.419Z,98789.91
2022-08-02T10:25:46.226Z,98780.38
2022-08-02T10:28:50.503Z,98779.41
2022-08-02T10:31:56.507Z,98772.41
2022-08-02T10:35:18.917Z,98773.97
2022-08-02T10:38:23.030Z,98764.00
2022-08-02T10:41:42.087Z,98758.63
2022-08-02T10:44:44.750Z,98750.44
2022-08-02T10:48:03.542Z,98751.69
2022-08-02T10:51:06.170Z,98752.09
2022-08-02T10:54:11.912Z,98743.53
2022-08-02T10:57:23.035Z,98744.03
2022-08-02T11:00:27.996Z,98748.25
2022-08-02T11:03:42.650Z,98740.06
2022-08-02T11:07:14.016Z,98744.41
2022-08-02T11:10:35.337Z,98741.22
2022-08-02T11:14:00.925Z,98733.44
2022-08-02T11:17:09.149Z,98737.81
2022-08-02T11:20:18.675Z,98735.56
2022-08-02T11:23:44.698Z,98735.91
2022-08-02T11:26:48.461Z,98722.78
2022-08-02T11:29:51.198Z,98726.09
2022-08-02T11:32:56.518Z,98721.53
2022-08-02T11:36:04.790Z,98713.97
2022-08-02T11:39:11.591Z,98719.81
2022-08-02T11:42:14.941Z,98713.13
2022-08-02T11:45:20.810Z,98710.25
2022-08-02T11:48:35.384Z,98706.84
2022-08-02T11:51:39.969Z,98704.91
2022-08-02T11:54:45.643Z,98705.72
2022-08-02T11:58:04.318Z,98704.19
2022-08-02T12:01:08.499Z,98707.53
2022-08-02T12:04:11.419Z,98697.59
2022-08-02T12:07:15.488Z,98699.81
2022-08-02T12:10:19.822Z,98696.94
2022-08-02T12:13:22.576Z,98703.03
2022-08-02T12:16:42.906Z,98708.09
2022-08-02T12:19:46.046Z,98710.03
2022-08-02T12:22:50.000Z,98712.16
2022-08-02T12:26:04.688Z,98711.75
2022-08-02T12:29:07.495Z,98707.13
2022-08-02T12:32:24.753Z,98698.63
2022-08-02T12:35:32.017Z,98688.38
2022-08-02T12:38:36.099Z,98692.47
2022-08-02T12:41:38.729Z,98699.56
2022-08-02T12:44:58.775Z,98682.00
2022-08-02T12:48:02.286Z,98693.19
2022-08-02T12:51:20.037Z,98677.00
2022-08-02T12:54:31.437Z,98684.25
2022-08-02T12:57:52.177Z,98680.06
2022-08-02T13:00:56.211Z,98676.75
2022-08-02T13:04:07.847Z,98670.84
2022-08-02T13:07:15.127Z,98659.72
2022-08-02T13:10:19.943Z,98658.34
2022-08-02T13:13:22.544Z,98659.94
2022-08-02T13:16:30.857Z,98652.72
2022-08-02T13:19:34.005Z,98638.63
2022-08-02T13:22:37.436Z,98644.75
2022-08-02T13:25:55.656Z,98634.38
2022-08-02T13:28:58.212Z,98627.94
2022-08-02T13:32:01.120Z,98625.59
2022-08-02T13:35:03.986Z,98617.75
2022-08-02T13:38:07.743Z,98619.97
2022-08-02T13:41:13.498Z,98623.44
2022-08-02T13:44:16.156Z,98612.19
2022-08-02T13:47:26.735Z,98610.72
2022-08-02T13:50:39.173Z,98604.59
2022-08-02T13:53:42.184Z,98589.50
2022-08-02T13:56:46.207Z,98591.44
2022-08-02T13:59:57.318Z,98586.47
2022-08-02T14:03:01.604Z,98591.78
2022-08-02T14:06:04.441Z,98583.88
2022-08-02T14:09:07.040Z,98589.97
2022-08-02T14:12:11.700Z,98579.66
2022-08-02T14:15:14.630Z,98579.28
2022-08-02T14:18:17.437Z,98580.78
2022-08-02T14:21:20.142Z,98580.06
2022-08-02T14:24:23.777Z,98578.91
2022-08-02T14:27:27.803Z,98575.97
2022-08-02T14:30:30.739Z,98575.16
2022-08-02T14:33:33.496Z,98574.78
2022-08-02T14:36:37.861Z,98571.84
2022-08-02T14:39:43.555Z,98572.53
2022-08-02T14:43:04.215Z,98589.03
2022-08-02T14:46:06.768Z,98581.19
2022-08-02T14:49:10.871Z,98579.78
2022-08-02T14:52:17.328Z,98569.63
2022-08-02T14:55:20.140Z,98565.28
2022-08-02T14:58:24.444Z,98564.16
2022-08-02T15:01:27.165Z,98557.19
2022-08-02T15:04:34.298Z,98559.03
2022-08-02T15:07:49.541Z,98557.63
2022-08-02T15:10:52.490Z,98553.94
2022-08-02T15:13:59.119Z,98548.06
2022-08-02T15:17:02.558Z,98556.59
2022-08-02T15:20:25.268Z,98547.59
2022-08-02T15:23:37.382Z,98552.34
2022-08-02T15:26:41.268Z,98545.88
2022-08-02T15:29:46.776Z,98550.91
2022-08-02T15:32:53.327Z,98539.72
2022-08-02T15:35:56.323Z,98550.03
2022-08-02T15:38:59.017Z,98544.59
2022-08-02T15:42:01.883Z,98538.28
2022-08-02T15:45:06.732Z,98540.47
2022-08-02T15:48:09.378Z,98533.06
2022-08-02T15:51:12.085Z,98528.88
2022-08-02T15:54:14.921Z,98537.22
2022-08-02T15:57:17.775Z,98526.00
2022-08-02T16:00:22.362Z,98534.38
2022-08-02T16:03:25.041Z,98534.72
2022-08-02T16:06:27.651Z,98521.19
2022-08-02T16:09:30.248Z,98534.75
2022-08-02T16:12:33.127Z,98526.47
2022-08-02T16:15:37.248Z,98520.63
2022-08-02T16:18:39.923Z,98512.53
2022-08-02T16:21:42.624Z,98509.41
2022-08-02T16:24:45.303Z,98518.13
2022-08-02T16:28:06.273Z,98516.91
2022-08-02T16:31:11.826Z,98514.09
2022-08-02T16:34:14.742Z,98507.63
2022-08-02T16:37:17.417Z,98514.25
2022-08-02T16:40:20.206Z,98511.34
2022-08-02T16:43:22.982Z,98503.44
2022-08-02T16:46:27.068Z,98505.00
2022-08-02T16:50:05.245Z,98505.91
2022-08-02T16:52:53.027Z,98507.13
2022-08-02T16:55:56.349Z,98496.63
2022-08-02T16:58:59.813Z,98503.66
2022-08-02T17:02:15.069Z,98491.47
2022-08-02T17:05:21.280Z,98493.38
2022-08-02T17:08:23.883Z,98494.28
2022-08-02T17:11:38.717Z,98496.84
2022-08-02T17:14:54.968Z,98487.28
2022-08-02T17:18:00.538Z,98482.13
2022-08-02T17:21:04.075Z,98491.19
2022-08-02T17:24:08.588Z,98489.78
2022-08-02T17:27:11.877Z,98486.69
2022-08-02T17:30:15.564Z,98489.78
2022-08-02T17:33:19.646Z,98494.53
2022-08-02T17:36:22.837Z,98494.69
2022-08-02T17:39:33.531Z,98498.16
2022-08-02T17:42:37.035Z,98500.78
2022-08-02T17:45:59.720Z,98501.25
2022-08-02T17:49:20.898Z,98501.03
2022-08-02T17:52:51.909Z,98508.53
2022-08-02T17:55:51.134Z,98509.13
2022-08-02T17:58:54.159Z,98500.22
2022-08-02T18:01:58.054Z,98504.88
2022-08-02T18:05:05.692Z,98507.03
2022-08-02T18:08:15.377Z,98508.75
2022-08-02T18:11:52.805Z,98509.41
2022-08-02T18:14:46.160Z,98507.38
2022-08-02T18:17:52.223Z,98509.13
2022-08-02T18:21:10.620Z,98515.41
2022-08-02T18:24:20.064Z,98510.03
2022-08-02T18:27:27.124Z,98505.66
2022-08-02T18:30:31.073Z,98506.53
2022-08-02T18:33:59.675Z,98512.69
2022-08-02T18:36:57.638Z,98512.50
2022-08-02T18:40:00.337Z,98516.75
2022-08-02T18:43:03.450Z,98527.97
2022-08-02T18:46:16.203Z,98526.22
2022-08-02T18:49:20.020Z,98524.81
2022-08-02T18:52:31.000Z,98520.38
2022-08-02T18:55:59.772Z,98518.38
2022-08-02T18:58:57.360Z,98516.25
2022-08-02T19:02:00.158Z,98521.78
2022-08-02T19:05:03.148Z,98520.13
2022-08-02T19:08:12.966Z,98525.03
2022-08-02T19:11:15.691Z,98517.34
2022-08-02T19:14:19.215Z,98522.44
2022-08-02T19:17:54.529Z,98529.50
2022-08-02T19:20:53.449Z,98531.31
2022-08-02T19:23:57.511Z,98528.28
2022-08-02T19:27:04.801Z,98529.13
2022-08-02T19:30:18.225Z,98536.41
2022-08-02T19:33:54.402Z,98531.13
2022-08-02T19:36:43.884Z,98537.41
2022-08-02T19:39:48.690Z,98539.09
2022-08-02T19:44:27.558Z,98539.69
2022-08-02T19:46:16.233Z,98548.78
2022-08-02T19:49:39.372Z,98549.28
2022-08-02T19:52:42.161Z,98556.91
2022-08-02T19:55:59.638Z,98563.69
2022-08-02T19:59:13.102Z,98561.44
2022-08-02T20:02:17.281Z,98561.84
2022-08-02T20:05:23.920Z,98563.16
2022-08-02T20:08:31.583Z,98560.44
2022-08-02T20:11:40.180Z,98557.31
2022-08-02T20:14:50.756Z,98559.44
2022-08-02T20:17:53.964Z,98555.06
2022-08-02T20:20:56.666Z,98568.66
2022-08-02T20:23:59.626Z,98557.94
2022-08-02T20:27:04.430Z,98563.16
2022-08-02T20:30:08.287Z,98554.38
2022-08-02T20:33:21.524Z,98563.22
2022-08-02T20:36:25.037Z,98565.56
2022-08-02T20:39:43.001Z,98563.59
2022-08-02T20:42:48.616Z,98564.44
2022-08-02T20:45:51.675Z,98564.91
2022-08-02T20:48:55.931Z,98566.47
2022-08-02T20:52:00.289Z,98571.31
2022-08-02T20:55:02.973Z,98577.69
2022-08-02T20:58:06.995Z,98576.56
2022-08-02T21:01:14.401Z,98576.91
2022-08-02T21:07:39.941Z,98573.00
2022-08-02T21:10:43.426Z,98575.03
2022-08-02T21:14:05.614Z,98577.84
2022-08-02T21:17:11.244Z,98567.16
2022-08-02T21:23:49.055Z,98560.47
2022-08-02T21:26:57.695Z,98564.81
2022-08-02T21:30:01.671Z,98566.84
2022-08-02T21:33:04.456Z,98562.88
2022-08-02T21:36:20.749Z,98558.13
2022-08-02T21:39:23.692Z,98566.09
2022-08-02T21:42:26.953Z,98564.50
2022-08-02T21:45:31.937Z,98564.50
2022-08-02T21:48:36.417Z,98563.72
2022-08-02T21:51:39.981Z,98564.91
2022-08-02T21:54:46.034Z,98559.75
2022-08-02T21:57:50.230Z,98564.53
2022-08-02T22:00:54.228Z,98569.69
2022-08-02T22:03:58.420Z,98569.28
2022-08-02T22:07:01.062Z,98571.69
2022-08-02T22:10:03.819Z,98572.47
2022-08-02T22:13:06.399Z,98570.50
2022-08-02T22:16:18.974Z,98581.22
2022-08-02T22:19:22.670Z,98580.38
2022-08-02T22:22:28.590Z,98574.41
2022-08-02T22:25:37.268Z,98587.56
2022-08-02T22:28:50.351Z,98579.97
2022-08-02T22:31:57.139Z,98592.69
2022-08-02T22:34:59.134Z,98592.28
2022-08-02T22:38:14.897Z,98595.84
2022-08-02T22:41:21.160Z,98597.44
2022-08-02T22:44:23.811Z,98600.97
2022-08-02T22:47:27.818Z,98596.22
2022-08-02T22:50:30.619Z,98596.19
2022-08-02T22:53:36.084Z,98593.41
2022-08-02T22:56:38.996Z,98586.66
2022-08-02T22:59:07.385Z,98578.91
2022-08-02T22:59:11.661Z,98568.81
2022-08-02T22:59:47.327Z,98583.06
2022-08-02T23:02:52.856Z,98587.44
2022-08-02T23:05:55.735Z,98583.44
2022-08-02T23:08:58.359Z,98588.16
2022-08-02T23:12:01.112Z,98589.38
2022-08-02T23:15:03.957Z,98589.75
2022-08-02T23:18:25.532Z,98592.91
2022-08-02T23:22:01.003Z,98588.91
2022-08-02T23:24:55.790Z,98595.66
2022-08-02T23:27:58.871Z,98592.44
2022-08-02T23:31:01.949Z,98592.03
2022-08-02T23:34:06.209Z,98590.41
2022-08-02T23:37:08.884Z,98593.53
2022-08-02T23:40:11.942Z,98599.09
2022-08-02T23:43:15.442Z,98598.69
2022-08-02T23:46:18.329Z,98604.25
2022-08-02T23:49:22.590Z,98598.31
2022-08-02T23:52:25.496Z,98606.19
2022-08-02T23:55:28.128Z,98593.47
2022-08-02T23:58:33.061Z,98587.13
